createdAt,value
2023-01-04T00:00:03.241Z,1032.40
2023-01-04T00:10:01.053Z,1032.18
2023-01-04T00:20:01.003Z,1031.95
2023-01-04T00:30:02.583Z,1031.79
2023-01-04T00:40:01.330Z,1031.61
2023-01-04T00:50:01.876Z,1031.43
2023-01-04T01:00:01.361Z,1031.14
2023-01-04T01:10:01.916Z,1030.92
2023-01-04T01:20:02.301Z,1031.01
2023-01-04T01:30:01.090Z,1030.88
2023-01-04T01:40:01.260Z,1030.91
2023-01-04T01:50:01.591Z,1030.78
2023-01-04T02:00:01.344Z,1030.88
2023-01-04T02:10:02.985Z,1030.68
2023-01-04T02:20:01.268Z,1030.35
2023-01-04T02:30:01.022Z,1029.89
2023-01-04T02:40:01.294Z,1029.65
2023-01-04T02:50:04.831Z,1029.35
2023-01-04T03:00:01.999Z,1029.51
2023-01-04T03:10:01.021Z,1029.24
2023-01-04T03:20:01.127Z,1029.07
2023-01-04T03:30:01.083Z,1028.98
2023-01-04T03:40:02.957Z,1028.72
2023-01-04T03:50:00.985Z,1028.50
2023-01-04T04:00:01.116Z,1028.32
2023-01-04T04:10:01.217Z,1028.33
2023-01-04T04:30:02.953Z,1027.77
2023-01-04T04:40:01.963Z,1027.57
2023-01-04T04:50:00.951Z,1027.35
2023-01-04T05:00:01.436Z,1026.98
2023-01-04T05:10:01.298Z,1026.62
2023-01-04T05:20:01.930Z,1026.37
2023-01-04T05:30:01.351Z,1026.00
2023-01-04T05:40:02.723Z,1025.74
2023-01-04T05:50:01.019Z,1025.41
2023-01-04T06:00:01.650Z,1025.20
2023-01-04T06:10:02.075Z,1025.01
2023-01-04T06:20:02.250Z,1024.82
2023-01-04T06:30:01.488Z,1024.54
2023-01-04T06:40:01.341Z,1024.33
2023-01-04T06:50:01.105Z,1024.09
2023-01-04T07:00:02.204Z,1023.77
2023-01-04T07:10:05.348Z,1023.68
2023-01-04T07:20:01.355Z,1023.54
2023-01-04T07:30:01.224Z,1023.43
2023-01-04T07:40:01.049Z,1023.57
2023-01-04T07:50:01.196Z,1023.59
2023-01-04T08:00:01.136Z,1023.45
2023-01-04T08:10:01.011Z,1023.27
2023-01-04T08:20:01.410Z,1023.06
2023-01-04T08:30:01.289Z,1023.01
2023-01-04T08:40:01.833Z,1022.97
2023-01-04T08:50:06.289Z,1022.92
2023-01-04T09:00:03.051Z,1022.88
2023-01-04T09:10:01.161Z,1022.95
2023-01-04T09:20:01.079Z,1022.89
2023-01-04T09:30:01.160Z,1022.68
2023-01-04T09:40:01.067Z,1022.49
2023-01-04T09:50:01.962Z,1022.31
2023-01-04T10:10:01.260Z,1021.79
2023-01-04T10:30:01.214Z,1021.50
2023-01-04T10:40:01.476Z,1021.22
2023-01-04T10:50:02.058Z,1020.99
2023-01-04T11:00:02.774Z,1020.79
2023-01-04T11:10:01.250Z,1020.53
2023-01-04T11:20:01.399Z,1020.25
2023-01-04T11:30:01.009Z,1020.09
2023-01-04T11:40:01.052Z,1020.00
2023-01-04T11:50:01.038Z,1019.79
2023-01-04T12:00:01.133Z,1019.67
2023-01-04T12:10:00.987Z,1019.39
2023-01-04T12:20:01.370Z,1019.23
2023-01-04T12:30:01.025Z,1019.22
2023-01-04T12:40:01.079Z,1018.96
2023-01-04T12:50:01.004Z,1018.94
2023-01-04T13:00:01.152Z,1018.82
2023-01-04T13:10:01.078Z,1018.79
2023-01-04T13:20:01.099Z,1018.53
2023-01-04T13:30:01.452Z,1018.48
2023-01-04T13:40:02.149Z,1018.35
2023-01-04T13:50:01.453Z,1018.17
2023-01-04T14:00:01.084Z,1017.98
2023-01-04T14:10:01.526Z,1018.07
2023-01-04T14:20:01.268Z,1018.04
2023-01-04T14:30:01.119Z,1017.90
2023-01-04T14:40:02.629Z,1017.83
2023-01-04T14:50:02.326Z,1017.76
2023-01-04T15:00:02.344Z,1017.57
2023-01-04T15:10:01.430Z,1017.32
2023-01-04T15:20:01.124Z,1017.18
2023-01-04T15:30:01.469Z,1017.10
2023-01-04T15:40:03.698Z,1017.07
2023-01-04T15:50:01.274Z,1016.82
2023-01-04T16:00:01.268Z,1016.65
2023-01-04T16:10:01.303Z,1016.56
2023-01-04T16:20:02.013Z,1016.50
2023-01-04T16:30:01.134Z,1016.41
2023-01-04T16:40:09.455Z,1016.26
2023-01-04T16:50:01.690Z,1015.83
2023-01-04T17:00:01.233Z,1015.67
2023-01-04T17:10:01.855Z,1015.51
2023-01-04T17:20:01.309Z,1015.45
2023-01-04T17:30:01.045Z,1015.08
2023-01-04T17:40:01.571Z,1014.98
2023-01-04T17:50:01.239Z,1014.88
2023-01-04T18:00:01.880Z,1014.78
2023-01-04T18:10:02.116Z,1014.82
2023-01-04T18:20:02.083Z,1014.68
2023-01-04T18:30:01.272Z,1014.70
2023-01-04T18:40:00.258Z,1014.46
2023-01-04T18:50:01.080Z,1014.47
2023-01-04T19:00:01.041Z,1014.23
2023-01-04T19:10:00.824Z,1014.10
2023-01-04T19:20:01.039Z,1014.18
2023-01-04T19:30:00.809Z,1014.05
2023-01-04T19:40:03.772Z,1013.98
2023-01-04T19:50:00.900Z,1013.94
2023-01-04T20:10:01.677Z,1013.77
2023-01-04T20:20:00.903Z,1013.68
2023-01-04T20:30:01.332Z,1013.67
2023-01-04T20:40:01.178Z,1013.60
2023-01-04T20:50:02.862Z,1013.47
2023-01-04T21:00:03.157Z,1013.19
2023-01-04T21:10:01.529Z,1013.10
2023-01-04T21:20:00.840Z,1013.27
2023-01-04T21:30:01.271Z,1013.45
2023-01-04T21:40:01.463Z,1014.16
2023-01-04T21:50:00.788Z,1014.11
2023-01-04T22:00:00.839Z,1014.33
2023-01-04T22:10:00.823Z,1014.39
2023-01-04T22:20:02.804Z,1014.03
2023-01-04T22:30:01.022Z,1014.11
2023-01-04T22:50:02.037Z,1014.21
2023-01-04T23:00:04.581Z,1014.09
2023-01-04T23:10:00.870Z,1014.24
2023-01-04T23:20:01.698Z,1014.08
2023-01-04T23:30:01.036Z,1013.86
2023-01-04T23:40:00.873Z,1014.33
2023-01-04T23:50:00.876Z,1013.68
